Identifier: KMEV

AWOS Phone: 775-782-6264

AWOS Radio Freq: 119.325

Latitude: 39.00000000

Longitude: -119.75190000

Current Conditions

Updated: 6:08 PM GMT on 15 Sep 2019

  • Wind Speed (2min):
    8 Knots
  • Wind Direction (2min):
    160 Degrees
  • Temperature (10min):
    25 Celsius
  • Dew Point (10min):
    -2 Celsius
  • Humidity:
    17 Percent
  • Altimeter:
    30.03 inHG
  • Density Altitude:
    6800 Feet
  • Visibility:
    10 Miles
  • Clouds:
    CLR
  • Rainfall Current Hour:
    0 Inches
METAR: METAR KMEV 151805Z AUTO 17009KT 10SM CLR 25/M02 A3003 RMK AO2